createdAt,value
2017-10-12T00:00:39.594Z,0
2017-10-12T00:01:39.570Z,0
2017-10-12T00:02:39.557Z,0
2017-10-12T00:03:39.526Z,0
2017-10-12T00:04:39.514Z,0
2017-10-12T00:05:39.489Z,0
2017-10-12T00:06:39.454Z,0
2017-10-12T00:07:39.431Z,0
2017-10-12T00:08:39.408Z,0
2017-10-12T00:09:39.078Z,0
2017-10-12T00:10:39.375Z,0
2017-10-12T00:11:39.349Z,0
2017-10-12T00:12:39.326Z,0
2017-10-12T00:13:39.311Z,0
2017-10-12T00:14:39.297Z,0
2017-10-12T00:15:39.259Z,0
2017-10-12T00:16:39.256Z,0
2017-10-12T00:17:39.217Z,0
2017-10-12T00:18:39.190Z,0
2017-10-12T00:19:39.170Z,0
2017-10-12T00:20:39.161Z,0
2017-10-12T00:21:39.120Z,0
2017-10-12T00:22:39.105Z,0
2017-10-12T00:23:39.086Z,0
2017-10-12T00:24:39.061Z,0
2017-10-12T00:25:39.037Z,0
2017-10-12T00:26:39.038Z,0
2017-10-12T00:27:39.002Z,0
2017-10-12T00:28:38.986Z,0
2017-10-12T00:29:38.957Z,0
2017-10-12T00:30:38.935Z,0
2017-10-12T00:31:38.917Z,0
2017-10-12T00:32:38.905Z,0
2017-10-12T00:33:38.865Z,0
2017-10-12T00:34:38.848Z,0
2017-10-12T00:35:38.827Z,0
2017-10-12T00:36:38.804Z,0
2017-10-12T00:37:38.787Z,0
2017-10-12T00:38:38.771Z,0
2017-10-12T00:39:38.736Z,0
2017-10-12T00:40:38.715Z,0
2017-10-12T00:41:38.690Z,0
2017-10-12T00:42:38.669Z,0
2017-10-12T00:43:38.644Z,0
2017-10-12T00:44:38.626Z,0
2017-10-12T00:45:38.291Z,0
2017-10-12T00:46:38.583Z,0
2017-10-12T00:47:38.564Z,0
2017-10-12T00:48:38.219Z,0
2017-10-12T00:49:38.522Z,0
2017-10-12T00:50:38.500Z,0
2017-10-12T00:51:38.487Z,0
2017-10-12T00:52:38.450Z,0
2017-10-12T00:53:38.429Z,0
2017-10-12T00:54:38.084Z,0
2017-10-12T00:55:38.395Z,0
2017-10-12T00:56:38.365Z,0
2017-10-12T00:57:38.344Z,0
2017-10-12T00:58:38.317Z,0
2017-10-12T00:59:38.293Z,0
2017-10-12T01:00:38.271Z,0
2017-10-12T01:01:38.264Z,0
2017-10-12T01:02:38.235Z,0
2017-10-12T01:03:37.566Z,0
2017-10-12T01:04:38.188Z,0
2017-10-12T01:05:38.164Z,0
2017-10-12T01:06:38.145Z,0
2017-10-12T01:07:38.114Z,0
2017-10-12T01:08:38.109Z,0
2017-10-12T01:09:38.077Z,0
2017-10-12T01:10:37.733Z,0
2017-10-12T01:11:38.025Z,0
2017-10-12T01:12:38.008Z,0
2017-10-12T01:13:38.006Z,0
2017-10-12T01:14:37.967Z,0
2017-10-12T01:15:37.932Z,0
2017-10-12T01:16:37.917Z,0
2017-10-12T01:17:37.894Z,0
2017-10-12T01:18:37.554Z,0
2017-10-12T01:19:37.845Z,0
2017-10-12T01:20:37.831Z,0
2017-10-12T01:21:37.481Z,0
2017-10-12T01:22:37.772Z,0
2017-10-12T01:23:37.761Z,0
2017-10-12T01:24:37.415Z,0
2017-10-12T01:25:37.398Z,0
2017-10-12T01:26:37.714Z,0
2017-10-12T01:27:37.667Z,0
2017-10-12T01:28:37.649Z,0
2017-10-12T01:29:37.623Z,0
2017-10-12T01:30:37.603Z,0
2017-10-12T01:31:37.581Z,0
2017-10-12T01:32:37.557Z,0
2017-10-12T01:33:37.550Z,0
2017-10-12T01:34:37.515Z,0
2017-10-12T01:35:37.489Z,0
2017-10-12T01:36:37.472Z,0
2017-10-12T01:37:37.134Z,0
2017-10-12T01:38:37.421Z,0
2017-10-12T01:39:37.397Z,0
2017-10-12T01:40:37.384Z,0
2017-10-12T01:41:37.036Z,0
2017-10-12T01:42:37.349Z,0
2017-10-12T01:43:37.307Z,0
2017-10-12T01:44:37.294Z,0
2017-10-12T01:45:37.259Z,0
2017-10-12T01:46:36.928Z,0
2017-10-12T01:47:37.224Z,0
2017-10-12T01:48:37.203Z,0
2017-10-12T01:49:37.179Z,0
2017-10-12T01:50:37.155Z,0
2017-10-12T01:51:37.128Z,0
2017-10-12T01:52:37.113Z,0
2017-10-12T01:53:37.084Z,0
2017-10-12T01:54:36.751Z,0
2017-10-12T01:55:37.053Z,0
2017-10-12T01:56:37.010Z,0
2017-10-12T01:57:37.015Z,0
2017-10-12T01:58:36.986Z,0
2017-10-12T01:59:36.945Z,0
2017-10-12T02:00:36.930Z,0
2017-10-12T02:01:36.908Z,0
2017-10-12T02:02:36.881Z,0
2017-10-12T02:03:36.863Z,0
2017-10-12T02:04:36.828Z,0
2017-10-12T02:05:36.827Z,0
2017-10-12T02:06:36.796Z,0
2017-10-12T02:07:36.765Z,0
2017-10-12T02:08:36.748Z,0
2017-10-12T02:09:36.722Z,0
2017-10-12T02:10:36.707Z,0
2017-10-12T02:11:36.368Z,0
2017-10-12T02:12:36.341Z,0
2017-10-12T02:13:36.634Z,0
2017-10-12T02:14:36.611Z,0
2017-10-12T02:15:36.593Z,0
2017-10-12T02:16:36.574Z,0
2017-10-12T02:17:36.541Z,0
2017-10-12T02:18:36.545Z,0
2017-10-12T02:19:36.489Z,0
2017-10-12T02:20:36.467Z,0
2017-10-12T02:21:35.822Z,0
2017-10-12T02:22:36.424Z,0
2017-10-12T02:23:36.126Z,0
2017-10-12T02:24:36.392Z,0
2017-10-12T02:25:36.358Z,0
2017-10-12T02:26:36.349Z,0
2017-10-12T02:27:36.322Z,0
2017-10-12T02:28:36.296Z,0
2017-10-12T02:29:36.280Z,0
2017-10-12T02:30:36.297Z,0
2017-10-12T02:31:35.916Z,0
2017-10-12T02:32:36.214Z,0
2017-10-12T02:33:36.196Z,0
2017-10-12T02:34:36.179Z,0
2017-10-12T02:35:36.138Z,0
2017-10-12T02:36:36.121Z,0
2017-10-12T02:37:36.101Z,0
2017-10-12T02:38:36.091Z,0
2017-10-12T02:39:36.072Z,0
2017-10-12T02:40:35.713Z,0
2017-10-12T02:41:36.026Z,0
2017-10-12T02:42:35.988Z,0
2017-10-12T02:43:35.957Z,0
2017-10-12T02:44:35.946Z,0
2017-10-12T02:45:35.924Z,0
2017-10-12T02:46:35.883Z,0
2017-10-12T02:47:35.879Z,0
2017-10-12T02:48:35.848Z,0
2017-10-12T02:49:35.851Z,0
2017-10-12T02:50:35.800Z,0
2017-10-12T02:51:35.793Z,0
2017-10-12T02:52:35.763Z,0
2017-10-12T02:53:35.750Z,0
2017-10-12T02:54:35.402Z,0
2017-10-12T02:55:35.692Z,0
2017-10-12T02:56:35.673Z,0
2017-10-12T02:57:35.680Z,0
2017-10-12T02:58:35.629Z,0
2017-10-12T02:59:35.606Z,0
2017-10-12T03:00:35.587Z,0
2017-10-12T03:01:35.557Z,0
2017-10-12T03:02:35.540Z,0
2017-10-12T03:03:35.524Z,0
2017-10-12T03:04:35.494Z,0
2017-10-12T03:05:35.474Z,0
2017-10-12T03:06:35.453Z,0
2017-10-12T03:07:35.415Z,0
2017-10-12T03:08:35.403Z,0
2017-10-12T03:09:35.389Z,0
2017-10-12T03:10:35.364Z,0
2017-10-12T03:11:35.338Z,0
2017-10-12T03:12:35.309Z,0
2017-10-12T03:13:34.985Z,0
2017-10-12T03:14:35.285Z,0
2017-10-12T03:15:35.245Z,0
2017-10-12T03:16:35.224Z,0
2017-10-12T03:17:34.883Z,0
2017-10-12T03:18:35.182Z,0
2017-10-12T03:19:35.183Z,0
2017-10-12T03:20:35.144Z,0
2017-10-12T03:21:35.114Z,0
2017-10-12T03:22:35.114Z,0
2017-10-12T03:23:35.082Z,0
2017-10-12T03:24:35.054Z,0
2017-10-12T03:25:35.029Z,0
2017-10-12T03:26:35.003Z,0
2017-10-12T03:27:34.984Z,0
2017-10-12T03:28:34.957Z,0
2017-10-12T03:29:34.948Z,0
2017-10-12T03:30:34.921Z,0
2017-10-12T03:31:34.892Z,0
2017-10-12T03:32:34.876Z,0
2017-10-12T03:33:34.530Z,0
2017-10-12T03:34:34.502Z,0
2017-10-12T03:35:34.813Z,0
2017-10-12T03:36:34.780Z,0
2017-10-12T03:37:34.764Z,0
2017-10-12T03:38:34.733Z,0
2017-10-12T03:39:34.715Z,0
2017-10-12T03:40:34.688Z,0
2017-10-12T03:41:34.661Z,0
2017-10-12T03:42:34.644Z,0
2017-10-12T03:43:34.652Z,0
2017-10-12T03:44:34.598Z,0
2017-10-12T03:45:34.575Z,0
2017-10-12T03:46:34.562Z,0
2017-10-12T03:47:34.555Z,0
2017-10-12T03:48:34.515Z,0
2017-10-12T03:49:34.486Z,0
2017-10-12T03:50:34.147Z,0
2017-10-12T03:51:34.445Z,0
2017-10-12T03:52:34.426Z,0
2017-10-12T03:53:34.417Z,0
2017-10-12T03:54:34.381Z,0
2017-10-12T03:55:34.029Z,0
2017-10-12T03:56:34.342Z,0
2017-10-12T03:57:34.319Z,0
2017-10-12T03:58:34.286Z,0
2017-10-12T03:59:34.268Z,0
2017-10-12T04:00:34.238Z,0
2017-10-12T04:01:34.230Z,0
2017-10-12T04:02:34.194Z,0
2017-10-12T04:03:34.172Z,0
2017-10-12T04:04:34.143Z,0
2017-10-12T04:05:34.133Z,0
2017-10-12T04:06:34.101Z,0
2017-10-12T04:07:34.081Z,0
2017-10-12T04:08:34.060Z,0
2017-10-12T04:09:34.044Z,0
2017-10-12T04:10:34.017Z,0
2017-10-12T04:11:33.998Z,0
2017-10-12T04:12:33.664Z,0
2017-10-12T04:13:33.623Z,0
2017-10-12T04:14:33.925Z,0
2017-10-12T04:15:33.920Z,0
2017-10-12T04:16:33.554Z,0
2017-10-12T04:17:33.852Z,0
2017-10-12T04:18:33.877Z,0
2017-10-12T04:19:33.813Z,0
2017-10-12T04:20:33.796Z,0
2017-10-12T04:21:33.784Z,0
2017-10-12T04:22:33.743Z,0
2017-10-12T04:23:33.717Z,0
2017-10-12T04:24:33.705Z,0
2017-10-12T04:25:33.674Z,0
2017-10-12T04:26:33.668Z,0
2017-10-12T04:27:33.627Z,0
2017-10-12T04:28:33.607Z,0
2017-10-12T04:29:33.280Z,0
2017-10-12T04:30:33.240Z,0
2017-10-12T04:31:33.541Z,0
2017-10-12T04:32:33.197Z,0
2017-10-12T04:33:33.489Z,0
2017-10-12T04:34:33.465Z,0
2017-10-12T04:35:33.444Z,0
2017-10-12T04:36:33.424Z,0
2017-10-12T04:37:33.399Z,0
2017-10-12T04:38:33.384Z,0
2017-10-12T04:39:33.359Z,0
2017-10-12T04:40:33.333Z,0
2017-10-12T04:41:33.313Z,0
2017-10-12T04:42:33.294Z,0
2017-10-12T04:43:33.274Z,0
2017-10-12T04:44:33.258Z,0
2017-10-12T04:45:32.911Z,0
2017-10-12T04:46:32.880Z,0
2017-10-12T04:47:33.178Z,0
2017-10-12T04:48:33.186Z,0
2017-10-12T04:49:33.133Z,0
2017-10-12T04:50:33.102Z,0
2017-10-12T04:51:32.764Z,0
2017-10-12T04:52:33.090Z,0
2017-10-12T04:53:33.054Z,0
2017-10-12T04:54:32.386Z,0
2017-10-12T04:55:33.006Z,0
2017-10-12T04:56:32.656Z,0
2017-10-12T04:57:32.943Z,0
2017-10-12T04:58:32.935Z,0
2017-10-12T04:59:32.932Z,0
2017-10-12T05:00:32.897Z,0
2017-10-12T05:01:32.878Z,0
2017-10-12T05:02:32.521Z,0
2017-10-12T05:03:32.496Z,0
2017-10-12T05:04:32.807Z,0
2017-10-12T05:05:32.451Z,0
2017-10-12T05:06:32.430Z,0
2017-10-12T05:07:32.720Z,0
2017-10-12T05:08:32.714Z,0
2017-10-12T05:09:32.693Z,0
2017-10-12T05:10:32.649Z,0
2017-10-12T05:11:32.631Z,0
2017-10-12T05:12:32.616Z,0
2017-10-12T05:13:32.583Z,0
2017-10-12T05:14:32.561Z,0
2017-10-12T05:15:32.545Z,4
2017-10-12T05:16:32.513Z,4
2017-10-12T05:17:32.491Z,4
2017-10-12T05:18:32.487Z,0
2017-10-12T05:19:32.446Z,4
2017-10-12T05:20:32.431Z,0
2017-10-12T05:21:32.082Z,4
2017-10-12T05:22:32.071Z,4
2017-10-12T05:23:32.048Z,8
2017-10-12T05:24:32.330Z,8
2017-10-12T05:25:32.347Z,12
2017-10-12T05:26:32.290Z,12
2017-10-12T05:27:31.956Z,16
2017-10-12T05:28:32.243Z,20
2017-10-12T05:29:32.218Z,24
2017-10-12T05:30:32.200Z,20
2017-10-12T05:31:32.178Z,24
2017-10-12T05:32:31.832Z,32
2017-10-12T05:33:32.144Z,36
2017-10-12T05:34:32.115Z,44
2017-10-12T05:35:32.086Z,44
2017-10-12T05:36:31.756Z,52
2017-10-12T05:37:31.721Z,64
2017-10-12T05:38:32.018Z,76
2017-10-12T05:39:31.994Z,84
2017-10-12T05:40:31.981Z,92
2017-10-12T05:41:31.946Z,96
2017-10-12T05:42:31.929Z,100
2017-10-12T05:43:31.899Z,120
2017-10-12T05:44:31.882Z,140
2017-10-12T05:45:31.852Z,168
2017-10-12T05:46:31.838Z,192
2017-10-12T05:47:31.809Z,216
2017-10-12T05:48:31.789Z,252
2017-10-12T05:49:31.766Z,276
2017-10-12T05:50:31.749Z,312
2017-10-12T05:51:31.719Z,352
2017-10-12T05:52:31.702Z,392
2017-10-12T05:53:31.679Z,416
2017-10-12T05:54:31.681Z,464
2017-10-12T05:55:31.635Z,540
2017-10-12T05:56:31.306Z,620
2017-10-12T05:57:31.588Z,684
2017-10-12T05:58:31.560Z,792
2017-10-12T05:59:31.544Z,840
2017-10-12T06:00:31.517Z,912
2017-10-12T06:01:31.496Z,976
2017-10-12T06:02:31.486Z,1044
2017-10-12T06:03:31.450Z,1148
2017-10-12T06:04:31.443Z,1296
2017-10-12T06:05:31.410Z,1368
2017-10-12T06:06:31.383Z,1504
2017-10-12T06:07:31.359Z,1628
2017-10-12T06:08:31.346Z,1652
2017-10-12T06:09:31.324Z,1756
2017-10-12T06:10:31.286Z,1732
2017-10-12T06:11:30.956Z,1864
2017-10-12T06:12:31.255Z,2016
2017-10-12T06:13:31.219Z,1844
2017-10-12T06:14:31.208Z,2008
2017-10-12T06:15:30.853Z,2144
2017-10-12T06:16:31.168Z,2036
2017-10-12T06:17:31.136Z,2084
2017-10-12T06:18:30.787Z,2036
2017-10-12T06:19:30.769Z,2068
2017-10-12T06:20:31.074Z,2080
2017-10-12T06:21:31.046Z,2152
2017-10-12T06:22:31.016Z,2208
2017-10-12T06:23:30.999Z,2292
2017-10-12T06:24:30.975Z,2328
2017-10-12T06:25:30.960Z,2404
2017-10-12T06:26:30.934Z,2544
2017-10-12T06:27:30.907Z,2768
2017-10-12T06:28:30.904Z,3216
2017-10-12T06:29:30.875Z,3176
2017-10-12T06:30:30.844Z,3180
2017-10-12T06:31:30.495Z,3408
2017-10-12T06:32:30.796Z,3040
2017-10-12T06:33:30.776Z,3296
2017-10-12T06:34:30.752Z,3164
2017-10-12T06:35:30.731Z,3236
2017-10-12T06:36:30.704Z,2924
2017-10-12T06:37:30.687Z,2940
2017-10-12T06:38:30.682Z,3036
2017-10-12T06:39:30.633Z,2920
2017-10-12T06:40:30.613Z,2724
2017-10-12T06:41:30.295Z,2752
2017-10-12T06:42:30.591Z,2848
2017-10-12T06:43:30.555Z,2980
2017-10-12T06:44:30.526Z,3092
2017-10-12T06:45:30.186Z,3180
2017-10-12T06:46:30.491Z,3240
2017-10-12T06:47:30.453Z,3272
2017-10-12T06:48:30.438Z,3360
2017-10-12T06:49:30.111Z,3652
2017-10-12T06:50:30.393Z,3944
2017-10-12T06:51:30.371Z,3664
2017-10-12T06:52:30.348Z,3420
2017-10-12T06:53:30.338Z,3256
2017-10-12T06:54:29.994Z,3104
2017-10-12T06:55:30.290Z,2992
2017-10-12T06:56:30.260Z,2908
2017-10-12T06:57:30.243Z,2880
2017-10-12T06:58:29.894Z,2904
2017-10-12T06:59:30.193Z,2944
2017-10-12T07:00:30.175Z,3008
2017-10-12T07:01:30.147Z,3076
2017-10-12T07:02:30.116Z,3124
2017-10-12T07:03:30.100Z,3188
2017-10-12T07:04:30.083Z,3352
2017-10-12T07:05:30.067Z,3584
2017-10-12T07:06:30.031Z,3872
2017-10-12T07:07:30.013Z,4152
2017-10-12T07:08:29.992Z,4388
2017-10-12T07:09:29.974Z,4644
2017-10-12T07:10:29.947Z,4956
2017-10-12T07:11:29.941Z,5204
2017-10-12T07:12:29.903Z,5360
2017-10-12T07:13:29.556Z,5432
2017-10-12T07:14:29.857Z,5368
2017-10-12T07:15:29.515Z,5256
2017-10-12T07:16:29.810Z,5112
2017-10-12T07:17:29.787Z,4948
2017-10-12T07:18:29.771Z,4904
2017-10-12T07:19:29.748Z,4760
2017-10-12T07:20:29.748Z,4772
2017-10-12T07:21:29.703Z,4704
2017-10-12T07:22:29.686Z,4832
2017-10-12T07:23:29.354Z,5104
2017-10-12T07:24:29.320Z,5080
2017-10-12T07:25:29.621Z,5236
2017-10-12T07:26:29.594Z,5400
2017-10-12T07:27:29.585Z,5500
2017-10-12T07:28:29.225Z,5540
2017-10-12T07:29:29.525Z,5480
2017-10-12T07:30:29.196Z,5372
2017-10-12T07:31:29.482Z,5296
2017-10-12T07:32:29.474Z,5212
2017-10-12T07:33:29.443Z,5048
2017-10-12T07:34:29.098Z,4860
2017-10-12T07:35:29.390Z,4784
2017-10-12T07:36:29.369Z,4732
2017-10-12T07:37:29.347Z,4572
2017-10-12T07:38:29.010Z,4344
2017-10-12T07:39:29.315Z,4200
2017-10-12T07:40:29.276Z,4252
2017-10-12T07:41:28.674Z,4448
2017-10-12T07:42:29.234Z,4704
2017-10-12T07:43:29.213Z,4904
2017-10-12T07:44:29.206Z,5032
2017-10-12T07:45:29.181Z,5072
2017-10-12T07:46:29.146Z,5112
2017-10-12T07:47:29.128Z,5200
2017-10-12T07:48:28.783Z,5264
2017-10-12T07:49:28.772Z,5592
2017-10-12T07:50:29.075Z,6064
2017-10-12T07:51:29.044Z,6552
2017-10-12T07:52:29.019Z,6920
2017-10-12T07:53:28.999Z,7048
2017-10-12T07:54:28.986Z,7096
2017-10-12T07:55:28.946Z,7352
2017-10-12T07:56:28.920Z,7232
2017-10-12T07:57:28.921Z,7452
2017-10-12T07:58:28.566Z,7468
2017-10-12T07:59:28.868Z,7272
2017-10-12T08:00:28.834Z,7140
2017-10-12T08:01:28.835Z,6988
2017-10-12T08:02:28.804Z,6996
2017-10-12T08:03:28.787Z,7148
2017-10-12T08:04:28.747Z,7380
2017-10-12T08:05:28.731Z,7780
2017-10-12T08:06:28.716Z,8272
2017-10-12T08:07:28.682Z,8544
2017-10-12T08:08:28.674Z,8808
2017-10-12T08:09:28.663Z,8988
2017-10-12T08:10:28.626Z,9028
2017-10-12T08:11:28.601Z,9220
2017-10-12T08:12:28.580Z,9548
2017-10-12T08:13:28.557Z,10108
2017-10-12T08:14:28.531Z,10584
2017-10-12T08:15:28.511Z,10092
2017-10-12T08:16:28.495Z,9764
2017-10-12T08:17:28.479Z,9588
2017-10-12T08:18:28.445Z,9548
2017-10-12T08:19:28.434Z,9976
2017-10-12T08:20:28.404Z,10960
2017-10-12T08:21:28.067Z,11376
2017-10-12T08:22:28.358Z,11696
2017-10-12T08:23:28.041Z,12120
2017-10-12T08:24:28.001Z,12848
2017-10-12T08:25:27.964Z,13532
2017-10-12T08:26:28.267Z,13204
2017-10-12T08:27:28.274Z,12092
2017-10-12T08:28:28.237Z,12164
2017-10-12T08:29:28.215Z,12904
2017-10-12T08:30:28.192Z,13788
2017-10-12T08:31:28.176Z,13936
2017-10-12T08:32:27.821Z,12660
2017-10-12T08:33:28.131Z,12812
2017-10-12T08:34:28.128Z,12228
2017-10-12T08:35:28.084Z,11012
2017-10-12T08:36:27.773Z,10292
2017-10-12T08:37:28.048Z,9912
2017-10-12T08:38:28.022Z,13644
2017-10-12T08:39:28.000Z,13972
2017-10-12T08:40:27.983Z,8304
2017-10-12T08:41:27.970Z,7732
2017-10-12T08:42:27.935Z,7132
2017-10-12T08:43:27.913Z,10872
2017-10-12T08:44:27.908Z,12540
2017-10-12T08:45:27.880Z,7504
2017-10-12T08:46:27.847Z,8460
2017-10-12T08:47:27.839Z,9904
2017-10-12T08:48:27.820Z,10228
2017-10-12T08:49:27.795Z,8200
2017-10-12T08:50:27.768Z,8812
2017-10-12T08:51:27.751Z,9376
2017-10-12T08:52:27.416Z,9740
2017-10-12T08:53:27.725Z,10020
2017-10-12T08:54:27.691Z,10384
2017-10-12T08:55:27.667Z,11276
2017-10-12T08:56:27.663Z,9292
2017-10-12T08:57:27.646Z,9868
2017-10-12T08:58:27.612Z,10332
2017-10-12T08:59:27.583Z,8552
2017-10-12T09:00:27.562Z,7840
2017-10-12T09:01:27.548Z,7316
2017-10-12T09:02:27.529Z,7280
2017-10-12T09:03:27.517Z,6408
2017-10-12T09:04:27.507Z,5440
2017-10-12T09:05:27.446Z,5776
2017-10-12T09:06:27.447Z,6404
2017-10-12T09:07:27.421Z,6440
2017-10-12T09:08:27.392Z,6268
2017-10-12T09:09:27.375Z,6720
2017-10-12T09:10:27.371Z,8620
2017-10-12T09:11:27.342Z,9568
2017-10-12T09:12:27.311Z,9440
2017-10-12T09:13:27.287Z,9348
2017-10-12T09:14:27.288Z,9304
2017-10-12T09:15:26.932Z,9520
2017-10-12T09:16:27.228Z,8336
2017-10-12T09:17:27.211Z,7436
2017-10-12T09:18:27.192Z,7008
2017-10-12T09:19:26.847Z,6496
2017-10-12T09:20:27.145Z,7152
2017-10-12T09:21:26.798Z,5788
2017-10-12T09:22:27.107Z,5888
2017-10-12T09:23:27.094Z,5136
2017-10-12T09:24:27.057Z,5980
2017-10-12T09:25:27.038Z,7432
2017-10-12T09:26:27.016Z,18080
2017-10-12T09:27:26.671Z,9232
2017-10-12T09:28:27.018Z,9352
2017-10-12T09:29:26.950Z,10900
2017-10-12T09:30:26.931Z,7612
2017-10-12T09:31:26.904Z,6084
2017-10-12T09:32:26.885Z,5996
2017-10-12T09:33:26.550Z,7252
2017-10-12T09:34:26.869Z,6720
2017-10-12T09:35:26.820Z,7412
2017-10-12T09:36:26.810Z,9280
2017-10-12T09:37:26.773Z,10844
2017-10-12T09:38:26.756Z,8724
2017-10-12T09:39:26.739Z,9108
2017-10-12T09:40:26.755Z,9076
2017-10-12T09:41:26.711Z,9524
2017-10-12T09:42:26.678Z,7576
2017-10-12T09:43:26.679Z,6652
2017-10-12T09:44:25.671Z,7328
2017-10-12T09:45:26.621Z,8712
2017-10-12T09:46:26.600Z,8780
2017-10-12T09:47:26.584Z,9100
2017-10-12T09:48:26.555Z,9572
2017-10-12T09:49:26.201Z,9672
2017-10-12T09:50:26.509Z,10996
2017-10-12T09:51:26.493Z,9520
2017-10-12T09:52:26.473Z,10104
2017-10-12T09:53:26.454Z,9100
2017-10-12T09:54:26.423Z,8300
2017-10-12T09:55:26.395Z,8932
2017-10-12T09:56:26.396Z,9696
2017-10-12T09:57:26.039Z,10644
2017-10-12T09:58:26.020Z,10872
2017-10-12T09:59:26.313Z,10760
2017-10-12T10:00:26.294Z,10296
2017-10-12T10:01:26.088Z,9884
2017-10-12T10:02:26.265Z,11340
2017-10-12T10:03:26.241Z,12556
2017-10-12T10:04:26.209Z,12160
2017-10-12T10:05:26.197Z,10568
2017-10-12T10:06:26.162Z,9644
2017-10-12T10:07:25.836Z,9728
2017-10-12T10:08:26.125Z,9068
2017-10-12T10:09:26.098Z,8608
2017-10-12T10:10:26.080Z,8208
2017-10-12T10:11:25.742Z,8360
2017-10-12T10:12:26.046Z,8708
2017-10-12T10:13:26.011Z,9140
2017-10-12T10:14:26.004Z,9376
2017-10-12T10:15:25.983Z,10416
2017-10-12T10:16:25.948Z,10852
2017-10-12T10:17:25.614Z,10552
2017-10-12T10:18:25.919Z,10480
2017-10-12T10:19:25.920Z,10584
2017-10-12T10:20:25.868Z,11056
2017-10-12T10:21:25.851Z,11376
2017-10-12T10:22:25.829Z,11464
2017-10-12T10:23:25.803Z,10624
2017-10-12T10:24:25.475Z,9612
2017-10-12T10:25:25.788Z,10256
2017-10-12T10:26:25.747Z,11072
2017-10-12T10:27:25.724Z,11200
2017-10-12T10:28:25.705Z,11456
2017-10-12T10:29:25.680Z,11804
2017-10-12T10:30:25.669Z,11508
2017-10-12T10:31:25.642Z,11660
2017-10-12T10:32:25.623Z,11644
2017-10-12T10:33:25.601Z,11264
2017-10-12T10:34:25.586Z,10840
2017-10-12T10:35:25.560Z,9888
2017-10-12T10:36:25.529Z,10336
2017-10-12T10:37:25.517Z,11892
2017-10-12T10:38:25.501Z,12664
2017-10-12T10:39:25.494Z,13448
2017-10-12T10:40:25.470Z,13232
2017-10-12T10:41:25.444Z,13172
2017-10-12T10:42:25.420Z,12716
2017-10-12T10:43:25.391Z,12320
2017-10-12T10:44:25.366Z,12464
2017-10-12T10:45:25.344Z,11556
2017-10-12T10:46:25.322Z,12080
2017-10-12T10:47:25.302Z,13600
2017-10-12T10:48:24.965Z,15212
2017-10-12T10:49:25.266Z,13096
2017-10-12T10:50:25.252Z,13432
2017-10-12T10:51:25.226Z,11656
2017-10-12T10:52:24.895Z,9932
2017-10-12T10:53:25.176Z,9272
2017-10-12T10:54:25.170Z,9004
2017-10-12T10:55:25.140Z,9212
2017-10-12T10:56:25.125Z,9692
2017-10-12T10:57:25.095Z,10060
2017-10-12T10:58:25.089Z,10796
2017-10-12T10:59:25.056Z,11000
2017-10-12T11:00:25.040Z,11040
2017-10-12T11:01:25.009Z,10908
2017-10-12T11:02:24.692Z,11192
2017-10-12T11:03:24.974Z,10892
2017-10-12T11:04:24.953Z,11168
2017-10-12T11:05:24.936Z,11072
2017-10-12T11:06:24.908Z,11200
2017-10-12T11:07:24.584Z,11588
2017-10-12T11:08:24.880Z,11308
2017-10-12T11:09:24.529Z,11184
2017-10-12T11:10:24.830Z,9420
2017-10-12T11:11:24.813Z,8068
2017-10-12T11:12:24.795Z,9276
2017-10-12T11:13:24.445Z,10692
2017-10-12T11:14:24.746Z,11108
2017-10-12T11:15:24.736Z,12328
2017-10-12T11:16:24.714Z,12608
2017-10-12T11:17:24.677Z,12408
2017-10-12T11:18:24.662Z,12104
2017-10-12T11:19:24.649Z,11884
2017-10-12T11:20:24.618Z,11604
2017-10-12T11:21:23.971Z,12428
2017-10-12T11:22:24.589Z,12764
2017-10-12T11:23:24.240Z,11976
2017-10-12T11:24:24.553Z,11084
2017-10-12T11:25:24.513Z,10640
2017-10-12T11:26:24.492Z,11440
2017-10-12T11:27:24.489Z,12220
2017-10-12T11:28:24.461Z,12696
2017-10-12T11:29:24.118Z,13096
2017-10-12T11:30:24.415Z,13000
2017-10-12T11:31:24.398Z,12600
2017-10-12T11:32:24.379Z,12384
2017-10-12T11:33:24.042Z,12516
2017-10-12T11:34:24.337Z,12424
2017-10-12T11:35:24.314Z,12168
2017-10-12T11:36:24.297Z,12124
2017-10-12T11:37:24.283Z,12180
2017-10-12T11:38:23.931Z,12164
2017-10-12T11:39:24.233Z,12084
2017-10-12T11:40:24.219Z,11932
2017-10-12T11:41:24.190Z,11992
2017-10-12T11:42:24.169Z,12196
2017-10-12T11:43:24.156Z,12188
2017-10-12T11:44:23.812Z,12000
2017-10-12T11:45:24.108Z,11644
2017-10-12T11:46:24.086Z,11252
2017-10-12T11:47:24.067Z,11100
2017-10-12T11:48:24.060Z,11176
2017-10-12T11:49:24.031Z,11072
2017-10-12T11:50:24.019Z,10564
2017-10-12T11:51:23.995Z,10132
2017-10-12T11:52:23.646Z,9944
2017-10-12T11:53:23.944Z,9680
2017-10-12T11:54:23.922Z,9592
2017-10-12T11:55:23.908Z,9720
2017-10-12T11:56:23.885Z,9876
2017-10-12T11:57:23.865Z,9940
2017-10-12T11:58:23.841Z,10092
2017-10-12T11:59:23.503Z,10248
2017-10-12T12:00:23.804Z,10488
2017-10-12T12:01:23.460Z,10604
2017-10-12T12:02:23.762Z,10968
2017-10-12T12:03:23.738Z,11376
2017-10-12T12:04:23.713Z,11620
2017-10-12T12:05:23.703Z,12392
2017-10-12T12:06:23.678Z,12620
2017-10-12T12:07:23.667Z,12644
2017-10-12T12:08:23.319Z,12552
2017-10-12T12:09:23.616Z,12316
2017-10-12T12:10:23.587Z,11816
2017-10-12T12:11:23.596Z,11300
2017-10-12T12:12:23.564Z,11052
2017-10-12T12:13:23.554Z,10196
2017-10-12T12:14:23.515Z,10012
2017-10-12T12:15:23.502Z,9784
2017-10-12T12:16:23.480Z,9980
2017-10-12T12:17:23.445Z,8984
2017-10-12T12:18:23.442Z,9760
2017-10-12T12:19:23.409Z,10836
2017-10-12T12:20:23.386Z,11044
2017-10-12T12:21:23.370Z,10940
2017-10-12T12:22:23.379Z,10784
2017-10-12T12:23:23.337Z,10780
2017-10-12T12:24:23.344Z,10908
2017-10-12T12:25:22.969Z,11264
2017-10-12T12:26:23.270Z,11436
2017-10-12T12:27:22.935Z,11456
2017-10-12T12:28:22.906Z,11356
2017-10-12T12:29:23.210Z,11336
2017-10-12T12:30:23.200Z,11308
2017-10-12T12:31:23.170Z,11156
2017-10-12T12:32:23.152Z,10980
2017-10-12T12:33:23.140Z,10800
2017-10-12T12:34:23.115Z,10636
2017-10-12T12:35:23.082Z,10568
2017-10-12T12:36:23.059Z,10440
2017-10-12T12:37:23.052Z,10680
2017-10-12T12:38:23.023Z,10688
2017-10-12T12:39:23.006Z,9964
2017-10-12T12:40:22.986Z,8304
2017-10-12T12:41:22.976Z,7672
2017-10-12T12:42:22.947Z,8272
2017-10-12T12:43:22.921Z,7844
2017-10-12T12:44:22.907Z,9232
2017-10-12T12:45:22.878Z,10280
2017-10-12T12:46:22.865Z,10660
2017-10-12T12:47:22.840Z,10332
2017-10-12T12:48:22.814Z,9784
2017-10-12T12:49:22.797Z,9508
2017-10-12T12:50:22.770Z,9380
2017-10-12T12:51:22.758Z,9352
2017-10-12T12:52:22.410Z,9412
2017-10-12T12:53:22.713Z,9412
2017-10-12T12:54:22.702Z,9384
2017-10-12T12:55:22.675Z,9332
2017-10-12T12:56:22.656Z,9332
2017-10-12T12:57:22.661Z,9420
2017-10-12T12:58:22.628Z,9448
2017-10-12T12:59:22.274Z,9404
2017-10-12T13:00:22.585Z,9200
2017-10-12T13:01:22.224Z,8792
2017-10-12T13:02:22.217Z,8188
2017-10-12T13:03:22.184Z,7684
2017-10-12T13:04:22.493Z,7376
2017-10-12T13:05:22.477Z,7172
2017-10-12T13:06:22.464Z,7012
2017-10-12T13:07:22.110Z,6840
2017-10-12T13:08:22.411Z,6716
2017-10-12T13:09:22.063Z,6552
2017-10-12T13:10:22.054Z,6380
2017-10-12T13:11:22.345Z,6364
2017-10-12T13:12:22.327Z,6452
2017-10-12T13:13:22.298Z,6588
2017-10-12T13:14:22.290Z,6644
2017-10-12T13:15:22.269Z,6632
2017-10-12T13:16:22.238Z,6612
2017-10-12T13:17:22.219Z,6476
2017-10-12T13:18:22.200Z,6232
2017-10-12T13:19:22.169Z,6200
2017-10-12T13:20:22.156Z,6048
2017-10-12T13:21:22.129Z,6076
2017-10-12T13:22:22.120Z,6232
2017-10-12T13:23:22.096Z,6428
2017-10-12T13:24:22.072Z,6940
2017-10-12T13:25:22.053Z,8148
2017-10-12T13:26:22.078Z,7376
2017-10-12T13:27:22.014Z,6788
2017-10-12T13:28:21.979Z,6384
2017-10-12T13:29:21.960Z,6668
2017-10-12T13:30:21.947Z,7700
2017-10-12T13:31:21.960Z,7136
2017-10-12T13:32:21.901Z,7004
2017-10-12T13:33:21.889Z,7160
2017-10-12T13:34:21.854Z,7236
2017-10-12T13:35:21.841Z,6980
2017-10-12T13:36:21.814Z,6520
2017-10-12T13:37:21.792Z,6344
2017-10-12T13:38:21.780Z,6180
2017-10-12T13:39:21.776Z,6000
2017-10-12T13:40:21.427Z,6024
2017-10-12T13:41:21.735Z,7176
2017-10-12T13:42:21.696Z,7048
2017-10-12T13:43:21.683Z,6932
2017-10-12T13:44:21.656Z,8440
2017-10-12T13:45:21.429Z,7952
2017-10-12T13:46:21.618Z,7412
2017-10-12T13:47:21.596Z,8444